Terminal Aerodrome Forecast
Issued by NWS Wakefield, VA

Home | Current Version | Previous Version | Text Only | Print | Product List | Glossary On
Versions: 1 2 3 4 5 6 7 8 9 10 11 12 13 14
844
FTUS41 KAKQ 171140
TAFSBY
TAF
KSBY 171140Z 1712/1812 VRB03KT P6SM BKN250
     FM171700 20005KT P6SM BKN150
     FM172300 15003KT P6SM OVC080
     FM180900 VRB03KT P6SM BKN060=

USA.gov is the U.S. government's official web portal to all federal, state and local government web resources and services.